Meteorological Aerodrome Report (METAR)

METAR

Data at: 0120 UTC 15 Oct 2019

METAR for:NVSC (Sola/Vanua Lava Arpt, --, NV)
Text:NVSC 150000Z 14005KT 9999 BKN020 30/25 Q1010
Temperature: 30.0°C ( 86°F)
Dewpoint: 25.0°C ( 77°F) [RH = 75%]
Pressure (altimeter):29.82 inches Hg (1010.0 mb)
Winds:from the SE (140 degrees) at 6 MPH (5 knots; 2.6 m/s)
Visibility:6 or more sm (10+ km)
Ceiling:2000 feet AGL
Clouds: broken clouds at 2000 feet AGL

METAR

Data at: 0120 UTC 15 Oct 2019

METAR for:NVSG (Longana Arpt, --, NV)
Text:NVSG 150100Z AUTO 20003KT //// // NCD 27/24 Q1011
Temperature: 27.0°C ( 81°F)
Dewpoint: 24.0°C ( 75°F) [RH = 84%]
Pressure (altimeter):29.85 inches Hg (1011.0 mb)
Winds:from the SSW (200 degrees) at 3 MPH (3 knots; 1.5 m/s)
Ceiling:at least 12,000 feet AGL
Clouds:sky clear below 12,000 feet AGL

METAR

Data at: 0120 UTC 15 Oct 2019

METAR for:NVSS (Santo/Pekoa Intl, --, NV)
Text:NVSS 150100Z 21006KT 9999 BKN018 OVC040 26/22 Q1010
Temperature: 26.0°C ( 79°F)
Dewpoint: 22.0°C ( 72°F) [RH = 79%]
Pressure (altimeter):29.82 inches Hg (1010.0 mb)
Winds:from the SSW (210 degrees) at 7 MPH (6 knots; 3.1 m/s)
Visibility:6 or more sm (10+ km)
Ceiling:1800 feet AGL
Clouds: broken clouds at 1800 feet AGL, overcast cloud deck at 4000 feet AGL

METAR

Data at: 0120 UTC 15 Oct 2019

METAR for:NVSL (Malekula/Lamap, --, NV)
Text:NVSL 150000Z AUTO 18006KT //// // NCD Q1011
Pressure (altimeter):29.85 inches Hg (1011.0 mb)
Winds:from the S (180 degrees) at 7 MPH (6 knots; 3.1 m/s)
Ceiling:at least 12,000 feet AGL
Clouds:sky clear below 12,000 feet AGL

METAR

Data at: 0120 UTC 15 Oct 2019

METAR for:NVSP (Norsup Arpt, --, NV)
Text:No data found

METAR

Data at: 0120 UTC 15 Oct 2019

METAR for:NVVV (Efate/Bauerfield Int, --, NV)
Text:NVVV 150100Z 12008KT 9999 BKN020 25/19 Q1011
Temperature: 25.0°C ( 77°F)
Dewpoint: 19.0°C ( 66°F) [RH = 69%]
Pressure (altimeter):29.85 inches Hg (1011.0 mb)
Winds:from the ESE (120 degrees) at 9 MPH (8 knots; 4.1 m/s)
Visibility:6 or more sm (10+ km)
Ceiling:2000 feet AGL
Clouds: broken clouds at 2000 feet AGL

METAR

Data at: 0120 UTC 15 Oct 2019

METAR for:NVVW (Tanna Arpt, --, NV)
Text:NVVW 150100Z 17012KT 9999 BKN025 26/18 Q1011
Temperature: 26.0°C ( 79°F)
Dewpoint: 18.0°C ( 64°F) [RH = 61%]
Pressure (altimeter):29.85 inches Hg (1011.0 mb)
Winds:from the S (170 degrees) at 14 MPH (12 knots; 6.2 m/s)
Visibility:6 or more sm (10+ km)
Ceiling:2500 feet AGL
Clouds: broken clouds at 2500 feet AGL

METAR

Data at: 0120 UTC 15 Oct 2019

METAR for:NVVA (Aneityum/Mystery Isl, --, NV)
Text:NVVA 150000Z 18007KT 9999 SCT025 25/18 Q1013
Temperature: 25.0°C ( 77°F)
Dewpoint: 18.0°C ( 64°F) [RH = 65%]
Pressure (altimeter):29.91 inches Hg (1013.0 mb)
Winds:from the S (180 degrees) at 8 MPH (7 knots; 3.6 m/s)
Visibility:6 or more sm (10+ km)
Ceiling:at least 12,000 feet AGL
Clouds: scattered clouds at 2500 feet AGL

METAR

Data at: 0120 UTC 15 Oct 2019

NVVV 150100Z 12008KT 9999 BKN020 25/19 Q1011
NVSC 150000Z 14005KT 9999 BKN020 30/25 Q1010
NVSG 150100Z AUTO 20003KT //// // NCD 27/24 Q1011
NVSS 150100Z 21006KT 9999 BKN018 OVC040 26/22 Q1010
NVSL 150000Z AUTO 18006KT //// // NCD Q1011
No Data available for NVSP
NVVW 150100Z 17012KT 9999 BKN025 26/18 Q1011
NVVA 150000Z 18007KT 9999 SCT025 25/18 Q1013